Aviation Digital Data Service (ADDS)

Output produced by METARs form (0433 UTC 22 September 2017)
found at http://www.aviationweather.gov/adds/metars/
 
EPBY 220430Z 29005KT 6000 -RA SCT007 BKN040 10/10 Q1016
TAF EPBY 212330Z 2200/2224 31008KT 9999 BKN020 
     BECMG 2202/2204 BKN014 
     TEMPO 2202/2224 3000 -RA BR BKN004
       
TAF EPCE 220300Z 2203/2212 32008KT 9999 OVC020 
     TEMPO 2203/2212 5000 RADZ BR BKN005 OVC012
       
TAF EPDA 220200Z 2203/2212 36006KT 9999 BKN010 
     TEMPO 2203/2212 5000 RA BR OVC007 
     PROB30 
     TEMPO 2204/2209 3000 RADZ BR
       
TAF COR EPDE 220200Z 2203/2212 30004KT 1500 BR BKN005 OVC012 
     PROB40 2204/2206 0800 FG 
     BECMG 2207/2208 5000 BR BKN007 
     BECMG 2209/2211 30008KT 6000 BKN015 OVC020
       
EPGD 220430Z 34003KT 260V040 9999 FEW003 SCT005 BKN012 12/12 Q1015
TAF EPGD 212330Z 2200/2224 31008KT 9999 BKN020 
     BECMG 2200/2202 BKN014 
     TEMPO 2200/2206 3000 -RA BR BKN003 
     BECMG 2206/2208 OVC006 
     TEMPO 2206/2224 3000 -DZ BR BKN003
       
EPKK 220430Z 21004KT 9999 BKN009 10/09 Q1016
TAF EPKK 212330Z 2200/2224 30006KT 8000 BKN017 
     TEMPO 2200/2207 4000 RA BR BKN008 
     PROB40 
     TEMPO 2200/2207 2500 RA DZ BR BKN002 
     TEMPO 2207/2224 BKN011
       
TAF COR EPKS 220200Z 2203/2212 31006KT CAVOK 
     TEMPO 2203/2206 5000 BR MIFG 
     PROB30 
     TEMPO 2203/2206 2000 BR BKN003
       
EPKT 220430Z 32005KT 290V350 9999 -DZ BKN004 OVC005 10/09 Q1016
TAF EPKT 212330Z 2200/2224 32008KT 8000 BKN020 
     TEMPO 2200/2207 2500 RA BR BKN008 
     PROB40 
     TEMPO 2200/2207 1100 RA DZ BR BKN002 
     TEMPO 2207/2224 BKN011
       
EPLB 220430Z 28003KT 5000 BR OVC003 12/12 Q1015
TAF EPLB 220230Z 2203/2212 31004KT 5000 BR BKN003 
     TEMPO 2203/2209 1200 -DZ BR 
     PROB40 2203/2207 0300 FG OVC001
       
EPLL 220430Z 30004KT 270V330 2100 -RA BR BKN003 BKN021 11/10 Q1016
TAF EPLL 212330Z 2200/2224 32009KT 3000 -RA BR OVC003 
     TEMPO 2200/2206 1500 RA BR 
     PROB40 
     TEMPO 2202/2207 1200 DZ BR BKN001 
     BECMG 2208/2211 5000 BR OVC006 
     PROB40 
     TEMPO 2211/2218 4000 BR 
     TEMPO 2218/2224 3000 RA BR BKN003
       
TAF EPLY 212300Z 2200/2209 35006KT 8000 RA BKN017 
     PROB40 2200/2206 4000 RA RADZ SCT007 BKN013
       
TAF EPMB 220200Z 2203/2212 33006KT 5000 RA OVC010 
     TEMPO 2203/2209 RADZ BKN005 
     PROB40 2203/2209 1500 RADZ BR OVC003 
     BECMG 2209/2211 9999 BKN015
       
TAF EPMI 220200Z 2203/2212 33004KT 8000 BKN010 
     BECMG 2204/2206 5000 BR BKN007 
     PROB30 
     TEMPO 2204/2209 3000 BR SCT004 BKN010
       
TAF EPMM 220200Z 2203/2212 34004KT 3000 BR BKN005 OVC010 
     TEMPO 2203/2208 1500 DZ BR BKN003 
     PROB40 2203/2207 0500 DZ FG BKN002 
     PROB30 2210/2212 BKN007 BKN014
       
EPMO 220430Z VRB02KT 4000 BR BKN006 OVC011 12/12 Q1015
TAF EPMO 212330Z 2200/2224 34006KT 6000 BKN005 
     TEMPO 2200/2202 3000 -RA BR BKN003 
     TEMPO 2202/2208 2000 -DZ BR BKN002 
     PROB40 2203/2206 0500 FG OVC001 
     BECMG 2209/2212 BKN015 
     TEMPO 2215/2224 3000 RA BR BKN004
       
TAF EPOK 220200Z 2203/2212 32006KT 9999 BKN013 
     TEMPO 2203/2212 6000 -RA BKN007 BKN010 
     PROB40 2203/2209 3000 RA DZ BR BKN004
       
EPPO 220430Z 30006KT 9999 BKN017 09/08 Q1018
TAF AMD EPPO 220134Z 2201/2224 32006KT 9999 BKN014 
     TEMPO 2201/2206 BKN001 
     TEMPO 2206/2208 BKN008 
     BECMG 2208/2210 BKN025 
     PROB40 
     TEMPO 2212/2216 SCT020TCU
       
TAF EPPW 220200Z 2203/2212 31008KT 7000 BKN015 
     TEMPO 2203/2209 -RA SCT007 BKN012 
     PROB40 
     TEMPO 2204/2209 4000 RADZ BKN005 OVC010
       
EPRA 220430Z 32004KT 270V340 1500 -DZ BR OVC002 12/12 Q1015
TAF EPRA 220400Z 2204/2212 33006KT 4000 -DZRA BR BKN004 OVC010 
     TEMPO 2204/2208 1500 DZ BR OVC003 
     PROB40 2209/2212 6000 BKN007 OVC015
       
EPRZ 220430Z 24004KT 5000 BR BKN002 OVC003 11/11 Q1015
TAF EPRZ 212330Z 2200/2224 27008KT 8000 OVC006 
     TEMPO 2200/2207 4000 DZ BR BKN003 
     PROB40 
     TEMPO 2200/2207 0800 FG BKN001 
     BECMG 2207/2210 33010KT BKN016
       
EPSC 220430Z 12001KT 0200 R31/0600D FG NSC 05/05 Q1019
TAF EPSC 212330Z 2200/2224 28002KT 3000 BR SCT020 
     TEMPO 2200/2206 0200 FG 
     PROB30 2204/2207 OVC001 
     BECMG 2207/2209 CAVOK 
     BECMG 2220/2222 3000 BR 
     PROB40 2222/2224 0500 FG
       
TAF EPSN 220200Z 2203/2212 30004KT 9999 BKN014 
     TEMPO 2206/2212 5000 RA BR BKN007 OVC010
       
EPSY 220430Z VRB01KT 8000 OVC002 12/11 Q1015
TAF EPSY 220400Z 2204/2212 VRB03KT 9999 BKN002 OVC010
       
TAF EPTM 220200Z 2203/2212 34006KT 6000 BKN015 
     PROB40 2203/2208 1000 DZRA BR BKN004
       
EPWA 220430Z 31003KT 6000 -DZ SCT003 OVC005 12/12 Q1015 NOSIG
TAF EPWA 212330Z 2200/2224 34006KT 9999 BKN005 
     TEMPO 2200/2202 3000 -RA BR BKN003 
     TEMPO 2202/2208 2000 -DZ BR BKN002 
     PROB40 2203/2206 0600 FG OVC001 
     BECMG 2209/2212 BKN015 
     TEMPO 2215/2224 3000 RA BR BKN004
       
EPWR 220430Z 34006KT 9999 FEW006 SCT008 BKN010 11/09 Q1019
TAF EPWR 212330Z 2200/2224 32007KT 9999 SCT028 
     TEMPO 2200/2207 BKN007 
     PROB40 
     TEMPO 2207/2209 BKN013 
     PROB40 
     TEMPO 2211/2216 SCT020TCU
       
EPZG 220430Z VRB01KT 9999 MIFG SCT025 09/08 Q1019
TAF EPZG 220230Z 2203/2212 31004KT 9999 SCT020 
     TEMPO 2203/2206 4000 BR BKN004 
     TEMPO 2206/2209 BKN013
       
EPZG 220430Z VRB01KT 9999 MIFG SCT025 09/08 Q1019
TAF EPZG 220230Z 2203/2212 31004KT 9999 SCT020 
     TEMPO 2203/2206 4000 BR BKN004 
     TEMPO 2206/2209 BKN013
       
EPKK 220430Z 21004KT 9999 BKN009 10/09 Q1016
TAF EPKK 212330Z 2200/2224 30006KT 8000 BKN017 
     TEMPO 2200/2207 4000 RA BR BKN008 
     PROB40 
     TEMPO 2200/2207 2500 RA DZ BR BKN002 
     TEMPO 2207/2224 BKN011
       
TAF COR EPDE 220200Z 2203/2212 30004KT 1500 BR BKN005 OVC012 
     PROB40 2204/2206 0800 FG 
     BECMG 2207/2208 5000 BR BKN007 
     BECMG 2209/2211 30008KT 6000 BKN015 OVC020
       
EPSC 220430Z 12001KT 0200 R31/0600D FG NSC 05/05 Q1019
TAF EPSC 212330Z 2200/2224 28002KT 3000 BR SCT020 
     TEMPO 2200/2206 0200 FG 
     PROB30 2204/2207 OVC001 
     BECMG 2207/2209 CAVOK 
     BECMG 2220/2222 3000 BR 
     PROB40 2222/2224 0500 FG
       
EPRZ 220430Z 24004KT 5000 BR BKN002 OVC003 11/11 Q1015
TAF EPRZ 212330Z 2200/2224 27008KT 8000 OVC006 
     TEMPO 2200/2207 4000 DZ BR BKN003 
     PROB40 
     TEMPO 2200/2207 0800 FG BKN001 
     BECMG 2207/2210 33010KT BKN016
       
TAF COR EPKS 220200Z 2203/2212 31006KT CAVOK 
     TEMPO 2203/2206 5000 BR MIFG 
     PROB30 
     TEMPO 2203/2206 2000 BR BKN003
       
EPPO 220430Z 30006KT 9999 BKN017 09/08 Q1018
TAF AMD EPPO 220134Z 2201/2224 32006KT 9999 BKN014 
     TEMPO 2201/2206 BKN001 
     TEMPO 2206/2208 BKN008 
     BECMG 2208/2210 BKN025 
     PROB40 
     TEMPO 2212/2216 SCT020TCU
       
EPLL 220430Z 30004KT 270V330 2100 -RA BR BKN003 BKN021 11/10 Q1016
TAF EPLL 212330Z 2200/2224 32009KT 3000 -RA BR OVC003 
     TEMPO 2200/2206 1500 RA BR 
     PROB40 
     TEMPO 2202/2207 1200 DZ BR BKN001 
     BECMG 2208/2211 5000 BR OVC006 
     PROB40 
     TEMPO 2211/2218 4000 BR 
     TEMPO 2218/2224 3000 RA BR BKN003
       
EPWA 220430Z 31003KT 6000 -DZ SCT003 OVC005 12/12 Q1015 NOSIG
TAF EPWA 212330Z 2200/2224 34006KT 9999 BKN005 
     TEMPO 2200/2202 3000 -RA BR BKN003 
     TEMPO 2202/2208 2000 -DZ BR BKN002 
     PROB40 2203/2206 0600 FG OVC001 
     BECMG 2209/2212 BKN015 
     TEMPO 2215/2224 3000 RA BR BKN004
       
EPKT 220430Z 32005KT 290V350 9999 -DZ BKN004 OVC005 10/09 Q1016
TAF EPKT 212330Z 2200/2224 32008KT 8000 BKN020 
     TEMPO 2200/2207 2500 RA BR BKN008 
     PROB40 
     TEMPO 2200/2207 1100 RA DZ BR BKN002 
     TEMPO 2207/2224 BKN011
       
EPGD 220430Z 34003KT 260V040 9999 FEW003 SCT005 BKN012 12/12 Q1015
TAF EPGD 212330Z 2200/2224 31008KT 9999 BKN020 
     BECMG 2200/2202 BKN014 
     TEMPO 2200/2206 3000 -RA BR BKN003 
     BECMG 2206/2208 OVC006 
     TEMPO 2206/2224 3000 -DZ BR BKN003
       
EPWR 220430Z 34006KT 9999 FEW006 SCT008 BKN010 11/09 Q1019
TAF EPWR 212330Z 2200/2224 32007KT 9999 SCT028 
     TEMPO 2200/2207 BKN007 
     PROB40 
     TEMPO 2207/2209 BKN013 
     PROB40 
     TEMPO 2211/2216 SCT020TCU
       
TAF EPSN 220200Z 2203/2212 30004KT 9999 BKN014 
     TEMPO 2206/2212 5000 RA BR BKN007 OVC010
       
EPBY 220430Z 29005KT 6000 -RA SCT007 BKN040 10/10 Q1016
TAF EPBY 212330Z 2200/2224 31008KT 9999 BKN020 
     BECMG 2202/2204 BKN014 
     TEMPO 2202/2224 3000 -RA BR BKN004
       
EPSY 220430Z VRB01KT 8000 OVC002 12/11 Q1015
TAF EPSY 220400Z 2204/2212 VRB03KT 9999 BKN002 OVC010